sensor_id;sensor_type;location;lat;lon;timestamp;pressure;altitude;pressure_sealevel;temperature;humidity
45813;BME280;31519;45.408;10.962;2023-06-04T00:01:57;100691.34;;;25.75;60.48
45813;BME280;31519;45.408;10.962;2023-06-04T00:04:25;100686.41;;;25.52;60.92
45813;BME280;31519;45.408;10.962;2023-06-04T00:06:54;100678.78;;;25.26;62.57
45813;BME280;31519;45.408;10.962;2023-06-04T00:09:22;100687.63;;;25.44;62.19
45813;BME280;31519;45.408;10.962;2023-06-04T00:11:50;100684.97;;;25.37;62.23
45813;BME280;31519;45.408;10.962;2023-06-04T00:14:18;100689.25;;;25.38;61.78
45813;BME280;31519;45.408;10.962;2023-06-04T00:16:47;100694.22;;;25.57;60.46
45813;BME280;31519;45.408;10.962;2023-06-04T00:19:15;100696.16;;;25.49;60.22
45813;BME280;31519;45.408;10.962;2023-06-04T00:21:43;100695.53;;;25.28;61.01
45813;BME280;31519;45.408;10.962;2023-06-04T00:24:12;100697.50;;;25.24;61.82
45813;BME280;31519;45.408;10.962;2023-06-04T00:26:41;100688.91;;;25.29;61.49
45813;BME280;31519;45.408;10.962;2023-06-04T00:29:09;100690.31;;;25.51;60.87
45813;BME280;31519;45.408;10.962;2023-06-04T00:31:37;100692.63;;;25.59;60.87
45813;BME280;31519;45.408;10.962;2023-06-04T00:34:05;100694.59;;;25.52;60.52
45813;BME280;31519;45.408;10.962;2023-06-04T00:36:33;100696.44;;;25.69;59.91
45813;BME280;31519;45.408;10.962;2023-06-04T00:39:02;100698.00;;;25.01;62.82
45813;BME280;31519;45.408;10.962;2023-06-04T00:41:30;100701.22;;;24.71;64.20
45813;BME280;31519;45.408;10.962;2023-06-04T00:43:59;100698.50;;;24.67;64.99
45813;BME280;31519;45.408;10.962;2023-06-04T00:46:29;100699.22;;;24.89;64.16
45813;BME280;31519;45.408;10.962;2023-06-04T00:48:59;100697.56;;;25.13;63.51
45813;BME280;31519;45.408;10.962;2023-06-04T00:51:29;100694.47;;;25.04;62.96
45813;BME280;31519;45.408;10.962;2023-06-04T00:53:59;100696.59;;;24.57;66.83
45813;BME280;31519;45.408;10.962;2023-06-04T00:56:27;100690.44;;;23.72;73.25
45813;BME280;31519;45.408;10.962;2023-06-04T00:58:57;100683.44;;;23.50;76.83
45813;BME280;31519;45.408;10.962;2023-06-04T01:01:34;100690.44;;;23.58;78.23
45813;BME280;31519;45.408;10.962;2023-06-04T01:04:11;100685.25;;;23.10;80.67
45813;BME280;31519;45.408;10.962;2023-06-04T01:06:44;100693.53;;;23.56;79.02
45813;BME280;31519;45.408;10.962;2023-06-04T01:09:13;100695.50;;;23.63;79.74
45813;BME280;31519;45.408;10.962;2023-06-04T01:11:42;100692.72;;;23.41;81.13
45813;BME280;31519;45.408;10.962;2023-06-04T01:14:10;100685.31;;;23.38;82.40
45813;BME280;31519;45.408;10.962;2023-06-04T01:16:59;100689.22;;;23.41;83.12
45813;BME280;31519;45.408;10.962;2023-06-04T01:25:40;100695.00;;;23.29;86.08
45813;BME280;31519;45.408;10.962;2023-06-04T01:28:13;100693.81;;;23.19;86.35
45813;BME280;31519;45.408;10.962;2023-06-04T01:30:45;100696.16;;;23.17;86.69
45813;BME280;31519;45.408;10.962;2023-06-04T01:33:16;100703.66;;;23.59;84.10
45813;BME280;31519;45.408;10.962;2023-06-04T01:35:45;100707.94;;;23.78;83.45
45813;BME280;31519;45.408;10.962;2023-06-04T01:38:13;100712.94;;;23.51;84.92
45813;BME280;31519;45.408;10.962;2023-06-04T01:40:42;100709.50;;;23.68;84.34
45813;BME280;31519;45.408;10.962;2023-06-04T01:43:10;100711.44;;;23.96;82.24
45813;BME280;31519;45.408;10.962;2023-06-04T01:45:38;100711.44;;;23.68;83.67
45813;BME280;31519;45.408;10.962;2023-06-04T01:48:07;100708.31;;;23.66;84.52
45813;BME280;31519;45.408;10.962;2023-06-04T01:50:35;100714.53;;;23.59;85.92
45813;BME280;31519;45.408;10.962;2023-06-04T01:53:03;100713.00;;;23.87;83.40
45813;BME280;31519;45.408;10.962;2023-06-04T01:55:31;100719.50;;;23.43;85.66
45813;BME280;31519;45.408;10.962;2023-06-04T01:58:01;100715.22;;;23.42;86.44
45813;BME280;31519;45.408;10.962;2023-06-04T02:00:29;100712.94;;;23.48;86.79
45813;BME280;31519;45.408;10.962;2023-06-04T02:02:58;100718.00;;;23.49;88.37
45813;BME280;31519;45.408;10.962;2023-06-04T02:05:27;100715.13;;;23.00;91.84
45813;BME280;31519;45.408;10.962;2023-06-04T02:07:55;100723.28;;;23.07;91.51
45813;BME280;31519;45.408;10.962;2023-06-04T02:10:25;100721.50;;;23.53;92.25
45813;BME280;31519;45.408;10.962;2023-06-04T02:15:24;100716.88;;;23.68;90.64
45813;BME280;31519;45.408;10.962;2023-06-04T02:17:56;100730.06;;;23.83;89.81
45813;BME280;31519;45.408;10.962;2023-06-04T02:20:27;100728.13;;;23.84;89.44
45813;BME280;31519;45.408;10.962;2023-06-04T02:22:55;100722.72;;;23.88;89.57
45813;BME280;31519;45.408;10.962;2023-06-04T02:25:26;100719.19;;;23.76;90.39
45813;BME280;31519;45.408;10.962;2023-06-04T02:27:54;100724.25;;;23.71;92.22
45813;BME280;31519;45.408;10.962;2023-06-04T02:30:22;100721.16;;;23.72;92.58
45813;BME280;31519;45.408;10.962;2023-06-04T02:32:51;100711.44;;;23.89;91.55
45813;BME280;31519;45.408;10.962;2023-06-04T02:35:21;100715.34;;;23.92;91.59
45813;BME280;31519;45.408;10.962;2023-06-04T02:37:51;100717.25;;;23.98;90.92
45813;BME280;31519;45.408;10.962;2023-06-04T02:40:19;100716.47;;;23.83;90.70
45813;BME280;31519;45.408;10.962;2023-06-04T02:42:47;100718.41;;;23.65;91.42
45813;BME280;31519;45.408;10.962;2023-06-04T02:45:15;100719.56;;;23.61;92.45
45813;BME280;31519;45.408;10.962;2023-06-04T02:47:43;100725.00;;;23.61;91.81
45813;BME280;31519;45.408;10.962;2023-06-04T02:50:12;100722.66;;;23.56;92.88
45813;BME280;31519;45.408;10.962;2023-06-04T02:52:41;100715.28;;;23.56;93.59
45813;BME280;31519;45.408;10.962;2023-06-04T02:55:11;100714.50;;;23.56;93.13
45813;BME280;31519;45.408;10.962;2023-06-04T02:57:43;100722.66;;;23.56;93.76
45813;BME280;31519;45.408;10.962;2023-06-04T03:00:12;100717.25;;;23.59;92.66
45813;BME280;31519;45.408;10.962;2023-06-04T03:02:46;100721.88;;;23.52;93.16
45813;BME280;31519;45.408;10.962;2023-06-04T03:05:16;100722.28;;;23.54;91.90
45813;BME280;31519;45.408;10.962;2023-06-04T03:07:46;100719.22;;;23.91;89.73
45813;BME280;31519;45.408;10.962;2023-06-04T03:10:15;100725.03;;;23.68;91.54
45813;BME280;31519;45.408;10.962;2023-06-04T03:12:44;100720.38;;;23.82;90.99
45813;BME280;31519;45.408;10.962;2023-06-04T03:15:12;100724.63;;;23.66;91.94
45813;BME280;31519;45.408;10.962;2023-06-04T03:17:41;100719.19;;;23.62;91.79
45813;BME280;31519;45.408;10.962;2023-06-04T03:20:10;100720.75;;;23.81;91.25
45813;BME280;31519;45.408;10.962;2023-06-04T03:22:38;100715.31;;;23.77;92.42
45813;BME280;31519;45.408;10.962;2023-06-04T03:25:06;100719.22;;;23.94;90.21
45813;BME280;31519;45.408;10.962;2023-06-04T03:27:35;100717.28;;;24.05;90.13
45813;BME280;31519;45.408;10.962;2023-06-04T03:30:06;100711.03;;;23.76;90.78
45813;BME280;31519;45.408;10.962;2023-06-04T03:32:43;100717.63;;;23.75;91.63
45813;BME280;31519;45.408;10.962;2023-06-04T03:35:14;100728.13;;;23.80;91.88
45813;BME280;31519;45.408;10.962;2023-06-04T03:37:42;100727.72;;;23.61;92.62
45813;BME280;31519;45.408;10.962;2023-06-04T03:40:12;100740.59;;;23.81;90.65
45813;BME280;31519;45.408;10.962;2023-06-04T03:42:43;100740.16;;;23.55;91.34
45813;BME280;31519;45.408;10.962;2023-06-04T03:45:13;100739.38;;;23.58;91.54
45813;BME280;31519;45.408;10.962;2023-06-04T03:47:41;100733.56;;;23.59;90.37
45813;BME280;31519;45.408;10.962;2023-06-04T03:50:10;100731.59;;;23.49;90.02
45813;BME280;31519;45.408;10.962;2023-06-04T03:52:38;100733.09;;;23.36;91.12
45813;BME280;31519;45.408;10.962;2023-06-04T03:55:08;100734.69;;;23.51;89.95
45813;BME280;31519;45.408;10.962;2023-06-04T03:57:37;100729.19;;;23.33;89.67
45813;BME280;31519;45.408;10.962;2023-06-04T04:00:08;100733.16;;;23.54;89.32
45813;BME280;31519;45.408;10.962;2023-06-04T04:02:41;100732.81;;;23.76;86.97
45813;BME280;31519;45.408;10.962;2023-06-04T04:05:17;100734.75;;;23.94;84.22
45813;BME280;31519;45.408;10.962;2023-06-04T04:07:47;100740.94;;;23.59;86.45
45813;BME280;31519;45.408;10.962;2023-06-04T04:10:20;100738.44;;;23.08;89.43
45813;BME280;31519;45.408;10.962;2023-06-04T04:12:48;100733.09;;;23.36;89.62
45813;BME280;31519;45.408;10.962;2023-06-04T04:15:19;100725.63;;;23.12;91.92
45813;BME280;31519;45.408;10.962;2023-06-04T04:17:47;100723.81;;;23.48;88.09
45813;BME280;31519;45.408;10.962;2023-06-04T04:20:16;100724.59;;;23.52;89.39
45813;BME280;31519;45.408;10.962;2023-06-04T04:22:49;100715.31;;;23.67;90.29
45813;BME280;31519;45.408;10.962;2023-06-04T04:25:20;100714.53;;;23.66;88.60
45813;BME280;31519;45.408;10.962;2023-06-04T04:27:48;100716.09;;;23.64;89.48
45813;BME280;31519;45.408;10.962;2023-06-04T04:30:16;100709.88;;;24.06;87.46
45813;BME280;31519;45.408;10.962;2023-06-04T04:32:48;100720.75;;;23.77;85.85
45813;BME280;31519;45.408;10.962;2023-06-04T04:35:23;100721.53;;;24.06;85.27
45813;BME280;31519;45.408;10.962;2023-06-04T04:37:55;100717.28;;;24.26;85.31
45813;BME280;31519;45.408;10.962;2023-06-04T04:40:24;100722.69;;;24.02;87.68
45813;BME280;31519;45.408;10.962;2023-06-04T04:42:55;100719.97;;;24.02;87.69
45813;BME280;31519;45.408;10.962;2023-06-04T04:45:24;100724.63;;;24.12;87.79
45813;BME280;31519;45.408;10.962;2023-06-04T04:47:55;100724.25;;;23.89;88.78
45813;BME280;31519;45.408;10.962;2023-06-04T04:50:24;100721.53;;;24.38;87.64
45813;BME280;31519;45.408;10.962;2023-06-04T04:52:52;100726.22;;;24.38;86.19
45813;BME280;31519;45.408;10.962;2023-06-04T04:55:21;100726.22;;;24.16;86.92
45813;BME280;31519;45.408;10.962;2023-06-04T04:57:50;100722.72;;;24.05;87.33
45813;BME280;31519;45.408;10.962;2023-06-04T05:00:19;100723.50;;;23.92;88.51
45813;BME280;31519;45.408;10.962;2023-06-04T05:02:52;100722.31;;;24.03;88.22
45813;BME280;31519;45.408;10.962;2023-06-04T05:05:20;100717.66;;;24.04;87.63
45813;BME280;31519;45.408;10.962;2023-06-04T05:07:50;100712.97;;;23.97;86.97
45813;BME280;31519;45.408;10.962;2023-06-04T05:10:21;100721.94;;;24.01;86.04
45813;BME280;31519;45.408;10.962;2023-06-04T05:12:57;100715.34;;;24.23;85.27
45813;BME280;31519;45.408;10.962;2023-06-04T05:15:33;100720.00;;;24.19;85.52
45813;BME280;31519;45.408;10.962;2023-06-04T05:18:02;100725.06;;;24.17;85.70
45813;BME280;31519;45.408;10.962;2023-06-04T05:20:35;100726.97;;;24.42;85.54
45813;BME280;31519;45.408;10.962;2023-06-04T05:23:08;100725.81;;;24.46;85.83
45813;BME280;31519;45.408;10.962;2023-06-04T05:25:37;100737.84;;;24.52;85.56
45813;BME280;31519;45.408;10.962;2023-06-04T05:28:06;100739.00;;;24.58;84.52
45813;BME280;31519;45.408;10.962;2023-06-04T05:30:35;100736.31;;;24.44;85.20
45813;BME280;31519;45.408;10.962;2023-06-04T05:33:03;100739.38;;;24.57;84.50
45813;BME280;31519;45.408;10.962;2023-06-04T05:35:32;100750.28;;;24.53;83.94
45813;BME280;31519;45.408;10.962;2023-06-04T05:38:00;100746.78;;;24.63;83.65
45813;BME280;31519;45.408;10.962;2023-06-04T05:40:30;100748.34;;;24.54;82.82
45813;BME280;31519;45.408;10.962;2023-06-04T05:42:58;100756.16;;;24.45;83.28
45813;BME280;31519;45.408;10.962;2023-06-04T05:45:27;100760.00;;;24.61;82.49
45813;BME280;31519;45.408;10.962;2023-06-04T05:47:55;100751.06;;;24.57;81.69
45813;BME280;31519;45.408;10.962;2023-06-04T05:50:26;100756.13;;;24.59;79.25
45813;BME280;31519;45.408;10.962;2023-06-04T05:52:55;100758.06;;;24.65;79.66
45813;BME280;31519;45.408;10.962;2023-06-04T05:55:23;100762.69;;;24.76;79.46
45813;BME280;31519;45.408;10.962;2023-06-04T05:57:52;100766.56;;;24.89;79.63
45813;BME280;31519;45.408;10.962;2023-06-04T06:00:21;100757.31;;;24.47;80.48
45813;BME280;31519;45.408;10.962;2023-06-04T06:02:50;100761.91;;;24.71;80.41
45813;BME280;31519;45.408;10.962;2023-06-04T06:05:34;100766.25;;;24.55;81.35
45813;BME280;31519;45.408;10.962;2023-06-04T06:08:02;100772.84;;;24.64;81.82
45813;BME280;31519;45.408;10.962;2023-06-04T06:10:31;100767.28;;;25.03;81.29
45813;BME280;31519;45.408;10.962;2023-06-04T06:12:59;100774.72;;;24.85;81.94
45813;BME280;31519;45.408;10.962;2023-06-04T06:15:31;100773.56;;;24.90;83.02
45813;BME280;31519;45.408;10.962;2023-06-04T06:17:58;100775.94;;;24.73;83.97
45813;BME280;31519;45.408;10.962;2023-06-04T06:20:27;100782.91;;;24.89;82.55
45813;BME280;31519;45.408;10.962;2023-06-04T06:22:57;100781.72;;;24.93;82.22
45813;BME280;31519;45.408;10.962;2023-06-04T06:25:26;100785.25;;;24.83;81.50
45813;BME280;31519;45.408;10.962;2023-06-04T06:28:03;100785.63;;;24.89;81.03
45813;BME280;31519;45.408;10.962;2023-06-04T06:30:32;100786.09;;;24.52;83.15
45813;BME280;31519;45.408;10.962;2023-06-04T06:33:00;100787.19;;;24.97;82.36
45813;BME280;31519;45.408;10.962;2023-06-04T06:35:29;100789.53;;;24.91;83.04
45813;BME280;31519;45.408;10.962;2023-06-04T06:37:57;100783.69;;;24.89;83.39
45813;BME280;31519;45.408;10.962;2023-06-04T06:40:25;100782.56;;;24.72;84.72
45813;BME280;31519;45.408;10.962;2023-06-04T06:42:53;100782.16;;;24.78;82.82
45813;BME280;31519;45.408;10.962;2023-06-04T06:45:22;100780.59;;;24.84;82.08
45813;BME280;31519;45.408;10.962;2023-06-04T06:47:50;100791.88;;;24.82;83.07
45813;BME280;31519;45.408;10.962;2023-06-04T06:50:19;100776.69;;;24.81;83.39
45813;BME280;31519;45.408;10.962;2023-06-04T06:52:47;100793.03;;;24.81;84.69
45813;BME280;31519;45.408;10.962;2023-06-04T06:55:16;100789.50;;;24.98;84.48
45813;BME280;31519;45.408;10.962;2023-06-04T06:57:44;100789.16;;;24.82;85.54
45813;BME280;31519;45.408;10.962;2023-06-04T07:00:13;100799.19;;;25.13;82.95
45813;BME280;31519;45.408;10.962;2023-06-04T07:02:41;100797.69;;;24.98;83.97
45813;BME280;31519;45.408;10.962;2023-06-04T07:05:11;100798.13;;;24.86;81.88
45813;BME280;31519;45.408;10.962;2023-06-04T07:07:39;100801.56;;;25.08;81.67
45813;BME280;31519;45.408;10.962;2023-06-04T07:10:08;100806.91;;;25.33;80.73
45813;BME280;31519;45.408;10.962;2023-06-04T07:12:37;100813.22;;;25.08;81.75
45813;BME280;31519;45.408;10.962;2023-06-04T07:15:10;100813.56;;;25.21;81.53
45813;BME280;31519;45.408;10.962;2023-06-04T07:17:38;100811.63;;;25.25;79.49
45813;BME280;31519;45.408;10.962;2023-06-04T07:20:07;100806.19;;;25.25;77.77
45813;BME280;31519;45.408;10.962;2023-06-04T07:22:36;100802.97;;;25.41;77.80
45813;BME280;31519;45.408;10.962;2023-06-04T07:25:05;100811.97;;;25.31;76.66
45813;BME280;31519;45.408;10.962;2023-06-04T07:27:33;100815.53;;;25.21;76.73
45813;BME280;31519;45.408;10.962;2023-06-04T07:30:03;100808.06;;;25.35;75.89
45813;BME280;31519;45.408;10.962;2023-06-04T07:32:31;100809.97;;;25.45;77.13
45813;BME280;31519;45.408;10.962;2023-06-04T07:34:59;100813.94;;;26.07;73.21
45813;BME280;31519;45.408;10.962;2023-06-04T07:37:27;100820.09;;;26.21;72.74
45813;BME280;31519;45.408;10.962;2023-06-04T07:39:55;100813.44;;;26.22;73.28
45813;BME280;31519;45.408;10.962;2023-06-04T07:42:24;100826.38;;;26.11;72.03
45813;BME280;31519;45.408;10.962;2023-06-04T07:44:52;100819.84;;;25.94;73.08
45813;BME280;31519;45.408;10.962;2023-06-04T07:47:20;100820.28;;;25.86;72.29
45813;BME280;31519;45.408;10.962;2023-06-04T07:49:48;100828.03;;;25.98;71.09
45813;BME280;31519;45.408;10.962;2023-06-04T07:52:30;100824.41;;;26.15;71.02
45813;BME280;31519;45.408;10.962;2023-06-04T07:54:59;100820.31;;;26.41;69.35
45813;BME280;31519;45.408;10.962;2023-06-04T07:57:27;100814.38;;;26.50;70.39
45813;BME280;31519;45.408;10.962;2023-06-04T07:59:56;100818.09;;;26.25;71.01
45813;BME280;31519;45.408;10.962;2023-06-04T08:02:24;100821.81;;;26.45;70.00
45813;BME280;31519;45.408;10.962;2023-06-04T08:04:53;100820.72;;;26.39;70.08
45813;BME280;31519;45.408;10.962;2023-06-04T08:07:22;100819.94;;;26.35;69.75
45813;BME280;31519;45.408;10.962;2023-06-04T08:09:50;100829.28;;;26.41;70.40
45813;BME280;31519;45.408;10.962;2023-06-04T08:12:19;100826.75;;;26.61;68.81
45813;BME280;31519;45.408;10.962;2023-06-04T08:14:48;100826.28;;;26.70;66.91
45813;BME280;31519;45.408;10.962;2023-06-04T08:17:18;100824.25;;;26.77;65.98
45813;BME280;31519;45.408;10.962;2023-06-04T08:19:46;100832.66;;;26.56;64.35
45813;BME280;31519;45.408;10.962;2023-06-04T08:22:14;100838.59;;;26.48;65.44
45813;BME280;31519;45.408;10.962;2023-06-04T08:24:44;100834.41;;;26.77;66.25
45813;BME280;31519;45.408;10.962;2023-06-04T08:27:12;100834.53;;;26.66;65.16
45813;BME280;31519;45.408;10.962;2023-06-04T08:29:41;100829.53;;;26.99;65.61
45813;BME280;31519;45.408;10.962;2023-06-04T08:32:09;100828.88;;;27.21;64.56
45813;BME280;31519;45.408;10.962;2023-06-04T08:34:37;100830.84;;;27.21;64.25
45813;BME280;31519;45.408;10.962;2023-06-04T08:37:05;100831.66;;;27.52;61.12
45813;BME280;31519;45.408;10.962;2023-06-04T08:39:34;100838.00;;;27.75;60.27
45813;BME280;31519;45.408;10.962;2023-06-04T08:42:06;100832.00;;;27.84;59.11
45813;BME280;31519;45.408;10.962;2023-06-04T08:44:38;100832.44;;;27.79;56.38
45813;BME280;31519;45.408;10.962;2023-06-04T08:47:07;100832.91;;;27.74;55.78
45813;BME280;31519;45.408;10.962;2023-06-04T08:49:36;100842.50;;;28.16;54.37
45813;BME280;31519;45.408;10.962;2023-06-04T08:52:04;100841.31;;;27.90;54.55
45813;BME280;31519;45.408;10.962;2023-06-04T08:54:34;100847.28;;;26.80;57.88
45813;BME280;31519;45.408;10.962;2023-06-04T08:57:03;100850.34;;;26.89;58.67
45813;BME280;31519;45.408;10.962;2023-06-04T08:59:32;100853.69;;;27.71;56.73
45813;BME280;31519;45.408;10.962;2023-06-04T09:02:00;100848.94;;;28.02;55.69
45813;BME280;31519;45.408;10.962;2023-06-04T09:04:30;100856.91;;;27.93;53.23
45813;BME280;31519;45.408;10.962;2023-06-04T09:07:01;100846.78;;;27.90;53.17
45813;BME280;31519;45.408;10.962;2023-06-04T09:09:31;100854.41;;;27.75;52.87
45813;BME280;31519;45.408;10.962;2023-06-04T09:12:08;100845.59;;;28.18;52.15
45813;BME280;31519;45.408;10.962;2023-06-04T09:14:38;100847.22;;;27.24;53.83
45813;BME280;31519;45.408;10.962;2023-06-04T09:17:06;100862.03;;;27.61;55.09
45813;BME280;31519;45.408;10.962;2023-06-04T09:19:34;100851.00;;;27.95;53.79
45813;BME280;31519;45.408;10.962;2023-06-04T09:22:02;100852.06;;;28.01;52.21
45813;BME280;31519;45.408;10.962;2023-06-04T09:24:45;100857.81;;;28.10;51.59
45813;BME280;31519;45.408;10.962;2023-06-04T09:27:18;100859.47;;;28.04;51.63
45813;BME280;31519;45.408;10.962;2023-06-04T09:29:51;100859.44;;;28.07;51.74
45813;BME280;31519;45.408;10.962;2023-06-04T09:32:22;100862.25;;;28.00;51.57
45813;BME280;31519;45.408;10.962;2023-06-04T09:34:50;100862.31;;;27.97;52.31
45813;BME280;31519;45.408;10.962;2023-06-04T09:37:21;100868.16;;;27.99;52.76
45813;BME280;31519;45.408;10.962;2023-06-04T09:39:54;100866.22;;;27.96;53.60
45813;BME280;31519;45.408;10.962;2023-06-04T09:42:23;100862.25;;;28.00;52.12
45813;BME280;31519;45.408;10.962;2023-06-04T09:44:51;100862.94;;;28.08;52.53
45813;BME280;31519;45.408;10.962;2023-06-04T09:47:19;100862.94;;;28.08;52.01
45813;BME280;31519;45.408;10.962;2023-06-04T09:49:49;100862.31;;;27.97;52.64
45813;BME280;31519;45.408;10.962;2023-06-04T09:52:18;100862.22;;;28.04;52.95
45813;BME280;31519;45.408;10.962;2023-06-04T09:54:49;100859.66;;;28.20;52.45
45813;BME280;31519;45.408;10.962;2023-06-04T09:57:18;100857.03;;;28.09;51.50
45813;BME280;31519;45.408;10.962;2023-06-04T09:59:52;100853.16;;;28.34;52.12
45813;BME280;31519;45.408;10.962;2023-06-04T10:02:22;100841.09;;;28.54;52.78
45813;BME280;31519;45.408;10.962;2023-06-04T10:04:55;100841.44;;;28.80;52.25
45813;BME280;31519;45.408;10.962;2023-06-04T10:07:26;100838.66;;;29.03;51.23
45813;BME280;31519;45.408;10.962;2023-06-04T10:09:55;100835.34;;;28.92;51.51
45813;BME280;31519;45.408;10.962;2023-06-04T10:12:27;100829.16;;;29.27;49.73
45813;BME280;31519;45.408;10.962;2023-06-04T10:15:07;100832.41;;;29.42;48.39
45813;BME280;31519;45.408;10.962;2023-06-04T10:17:39;100835.53;;;29.21;49.08
45813;BME280;31519;45.408;10.962;2023-06-04T10:20:08;100831.19;;;29.43;49.25
45813;BME280;31519;45.408;10.962;2023-06-04T10:22:37;100840.00;;;29.90;48.19
45813;BME280;31519;45.408;10.962;2023-06-04T10:25:06;100830.75;;;29.64;48.05
45813;BME280;31519;45.408;10.962;2023-06-04T10:27:37;100827.00;;;29.74;48.23
45813;BME280;31519;45.408;10.962;2023-06-04T10:30:06;100834.50;;;29.90;45.88
45813;BME280;31519;45.408;10.962;2023-06-04T10:32:35;100835.56;;;29.60;46.67
45813;BME280;31519;45.408;10.962;2023-06-04T10:35:05;100825.41;;;30.09;46.43
45813;BME280;31519;45.408;10.962;2023-06-04T10:37:35;100826.94;;;29.94;46.18
45813;BME280;31519;45.408;10.962;2023-06-04T10:40:04;100832.03;;;29.76;45.65
45813;BME280;31519;45.408;10.962;2023-06-04T10:42:42;100825.19;;;29.84;45.75
45813;BME280;31519;45.408;10.962;2023-06-04T10:45:11;100824.00;;;29.49;46.07
45813;BME280;31519;45.408;10.962;2023-06-04T10:47:39;100831.75;;;30.55;45.23
45813;BME280;31519;45.408;10.962;2023-06-04T10:50:11;100825.78;;;30.72;44.64
45813;BME280;31519;45.408;10.962;2023-06-04T10:52:53;100820.19;;;30.15;43.39
45813;BME280;31519;45.408;10.962;2023-06-04T10:55:22;100815.47;;;30.48;44.11
45813;BME280;31519;45.408;10.962;2023-06-04T10:57:54;100818.44;;;30.53;44.06
45813;BME280;31519;45.408;10.962;2023-06-04T11:00:35;100817.31;;;31.24;42.31
45813;BME280;31519;45.408;10.962;2023-06-04T11:03:04;100815.44;;;30.93;41.81
45813;BME280;31519;45.408;10.962;2023-06-04T11:05:38;100819.34;;;31.08;40.92
45813;BME280;31519;45.408;10.962;2023-06-04T11:08:07;100817.72;;;31.10;40.24
45813;BME280;31519;45.408;10.962;2023-06-04T11:10:38;100820.94;;;30.31;41.47
45813;BME280;31519;45.408;10.962;2023-06-04T11:13:07;100819.44;;;31.04;40.09
45813;BME280;31519;45.408;10.962;2023-06-04T11:15:44;100813.41;;;31.09;40.13
45813;BME280;31519;45.408;10.962;2023-06-04T11:18:16;100802.13;;;31.33;39.63
45813;BME280;31519;45.408;10.962;2023-06-04T11:20:58;100818.44;;;31.52;38.83
45813;BME280;31519;45.408;10.962;2023-06-04T11:23:27;100807.56;;;31.61;39.63
45813;BME280;31519;45.408;10.962;2023-06-04T11:25:56;100806.88;;;32.21;39.26
45813;BME280;31519;45.408;10.962;2023-06-04T11:28:24;100803.25;;;32.11;39.42
45813;BME280;31519;45.408;10.962;2023-06-04T11:30:59;100810.44;;;31.83;39.34
45813;BME280;31519;45.408;10.962;2023-06-04T11:33:44;100814.50;;;30.83;40.95
45813;BME280;31519;45.408;10.962;2023-06-04T11:36:29;100817.06;;;31.19;39.69
45813;BME280;31519;45.408;10.962;2023-06-04T11:39:00;100808.22;;;31.53;39.85
45813;BME280;31519;45.408;10.962;2023-06-04T11:41:30;100803.94;;;31.64;39.44
45813;BME280;31519;45.408;10.962;2023-06-04T11:44:02;100790.91;;;32.03;38.53
45813;BME280;31519;45.408;10.962;2023-06-04T11:46:32;100793.78;;;31.87;38.92
45813;BME280;31519;45.408;10.962;2023-06-04T11:49:02;100790.72;;;32.44;38.00
45813;BME280;31519;45.408;10.962;2023-06-04T11:51:31;100784.06;;;32.20;38.36
45813;BME280;31519;45.408;10.962;2023-06-04T11:54:01;100785.94;;;32.10;38.49
45813;BME280;31519;45.408;10.962;2023-06-04T11:56:31;100776.22;;;32.19;38.31
45813;BME280;31519;45.408;10.962;2023-06-04T11:58:59;100781.78;;;31.68;38.96
45813;BME280;31519;45.408;10.962;2023-06-04T12:01:28;100783.28;;;32.20;38.62
45813;BME280;31519;45.408;10.962;2023-06-04T12:03:58;100786.94;;;32.17;38.10
45813;BME280;31519;45.408;10.962;2023-06-04T12:06:26;100782.28;;;32.26;38.03
45813;BME280;31519;45.408;10.962;2023-06-04T12:08:55;100778.41;;;32.24;38.00
45813;BME280;31519;45.408;10.962;2023-06-04T12:11:28;100774.09;;;32.35;38.11
45813;BME280;31519;45.408;10.962;2023-06-04T12:14:06;100772.94;;;32.45;37.15
45813;BME280;31519;45.408;10.962;2023-06-04T12:16:35;100790.88;;;32.50;38.19
45813;BME280;31519;45.408;10.962;2023-06-04T12:19:10;100780.41;;;32.58;38.63
45813;BME280;31519;45.408;10.962;2023-06-04T12:21:39;100780.91;;;32.43;37.41
45813;BME280;31519;45.408;10.962;2023-06-04T12:24:14;100787.94;;;32.79;37.74
45813;BME280;31519;45.408;10.962;2023-06-04T12:26:43;100784.97;;;32.73;37.67
45813;BME280;31519;45.408;10.962;2023-06-04T12:29:17;100776.53;;;32.55;37.87
45813;BME280;31519;45.408;10.962;2023-06-04T12:31:48;100776.56;;;32.98;36.87
45813;BME280;31519;45.408;10.962;2023-06-04T12:34:16;100769.56;;;33.07;37.06
45813;BME280;31519;45.408;10.962;2023-06-04T12:36:46;100771.63;;;32.93;36.40
45813;BME280;31519;45.408;10.962;2023-06-04T12:39:14;100763.13;;;33.10;36.09
45813;BME280;31519;45.408;10.962;2023-06-04T12:41:46;100758.66;;;33.03;35.82
45813;BME280;31519;45.408;10.962;2023-06-04T12:44:14;100764.81;;;32.64;35.93
45813;BME280;31519;45.408;10.962;2023-06-04T12:46:43;100769.00;;;32.90;35.94
45813;BME280;31519;45.408;10.962;2023-06-04T12:49:11;100757.66;;;33.40;34.21
45813;BME280;31519;45.408;10.962;2023-06-04T12:51:40;100759.06;;;33.54;34.71
45813;BME280;31519;45.408;10.962;2023-06-04T12:54:09;100751.69;;;34.00;34.88
45813;BME280;31519;45.408;10.962;2023-06-04T12:56:40;100748.50;;;34.38;34.27
45813;BME280;31519;45.408;10.962;2023-06-04T12:59:11;100747.88;;;34.52;34.08
45813;BME280;31519;45.408;10.962;2023-06-04T13:01:40;100744.16;;;35.01;32.75
45813;BME280;31519;45.408;10.962;2023-06-04T13:04:08;100733.09;;;34.92;33.37